Victoria III — VKV5113 — position and weather

sailwx.info

Track history (hours):
 
Tides and Currents Weather Stations Pressure Air Temp Water Temp Dewpoint Dewpoint Depression Visibility Wind Speed Wind Dir Waves Ship Positions

Victoria III

Last reported at 2014-May-09 00:31 UTC. Time now 2014-Jul-25 23:08 UTC.
Position S 37°52' E 144°54'.
Warning: this ship's position is months out of date.

Type: Pilot. MMSI: 503092900.

Date/timePositionNaut miles runAvg speedWind from/ knotsBaromVisibWave heightAir tempDewpointWater temp
2014-May-09 00:31S 37°52' E 144°54'0 0.0
2014-May-08 23:31S 37°52' E 144°54'0 0.0
2014-May-08 22:19S 37°52' E 144°54'0 0.0
2014-May-08 21:31S 37°52' E 144°54'0 0.0
2014-May-08 20:25S 37°52' E 144°54'0 0.0
2014-May-08 19:31S 37°52' E 144°54'0 0.0
2014-May-08 18:25S 37°52' E 144°54'10 8.0
2014-May-08 17:13S 38°01' E 144°52'5 6.9
2014-May-08 16:33S 37°57' E 144°54'5 4.7
2014-May-08 15:31S 37°52' E 144°54'0 0.0
2014-May-08 14:31S 37°52' E 144°54'0 0.0
2014-May-08 13:31S 37°52' E 144°54'1 1.3
2014-May-08 12:32S 37°53' E 144°55'1 1.2
2014-May-08 11:31S 37°52' E 144°54'0 0.0
2014-May-08 10:31S 37°52' E 144°54'0 0.0
2014-May-08 09:31S 37°52' E 144°54'7 6.5
2014-May-08 08:26S 37°58' E 144°52'7 3.1
2014-May-08 06:12S 37°52' E 144°54'0 0.0
2014-May-08 05:30S 37°52' E 144°54'5 5.0
2014-May-08 04:27S 37°56' E 144°51'1 1.1
2014-May-08 03:30S 37°57' E 144°52'6 5.6
2014-May-08 02:30S 37°52' E 144°54'0 0.0
2014-May-08 01:30S 37°52' E 144°54'0 0.0
2014-May-08 00:30S 37°52' E 144°54'0 0.0
2014-May-07 23:30S 37°52' E 144°54'0 0.0
2014-May-07 22:24S 37°52' E 144°54'0 0.0
2014-May-07 21:30S 37°52' E 144°54'0 0.0
2014-May-07 20:30S 37°52' E 144°54'0 0.0
2014-May-07 19:30S 37°52' E 144°54'0 0.2
2014-May-07 18:33S 37°52' E 144°55'0 0.1
2014-May-07 17:32S 37°52' E 144°54'0 0.1
2014-May-07 16:33S 37°52' E 144°54'0 0.0
2014-May-07 15:33S 37°52' E 144°54'0 0.0
2014-May-07 14:33S 37°52' E 144°54'0 0.0
2014-May-07 13:33S 37°52' E 144°54'0 0.0
2014-May-07 12:33S 37°52' E 144°54'0 0.0
2014-May-07 11:33S 37°52' E 144°54'0 0.0
2014-May-07 10:31S 37°52' E 144°54'3 3.0
2014-May-07 09:33S 37°54' E 144°53'3 2.9
2014-May-07 08:31S 37°52' E 144°54'0 0.0
2014-May-07 07:31S 37°52' E 144°54'0 0.0
2014-May-07 05:31S 37°52' E 144°54'0 0.0
2014-May-07 04:31S 37°52' E 144°54'0 0.0
2014-May-07 03:31S 37°52' E 144°54'0 0.0
2014-May-07 02:31S 37°52' E 144°54'0 0.0
2014-May-07 01:31S 37°52' E 144°54'0 0.0
2014-May-07 00:31S 37°52' E 144°54'1 1.5
2014-May-06 23:33S 37°53' E 144°55'1 1.3
2014-May-06 22:29S 37°52' E 144°54'0 0.0
2014-May-06 21:29S 37°52' E 144°54'0 0.0
2014-May-06 20:29S 37°52' E 144°54'2 2.6
2014-May-06 19:33S 37°54' E 144°55'2 2.3
2014-May-06 18:29S 37°52' E 144°54'0 0.0
2014-May-06 17:29S 37°52' E 144°54'0 0.0
2014-May-06 16:29S 37°52' E 144°54'5 5.7
2014-May-06 15:33S 37°57' E 144°54'5 5.0
2014-May-06 14:28S 37°52' E 144°54'0 0.0
2014-May-06 13:28S 37°52' E 144°54'5 4.2
2014-May-06 12:14S 37°56' E 144°52'5 7.3
2014-May-06 11:32S 37°52' E 144°54'0 0.0
2014-May-06 10:32S 37°52' E 144°54'0 0.0
2014-May-06 09:32S 37°52' E 144°54'6 5.3
2014-May-06 08:29S 37°57' E 144°53'6 5.8
2014-May-06 07:31S 37°52' E 144°54'0 0.0
2014-May-06 06:31S 37°52' E 144°54'3 3.5
2014-May-06 05:33S 37°55' E 144°54'3 3.3
2014-May-06 04:31S 37°52' E 144°54'1 0.7
2014-May-06 03:33S 37°52' E 144°55'1 0.7
2014-May-06 02:33S 37°52' E 144°54'0 0.0
2014-May-06 01:33S 37°52' E 144°54'0 0.0
2014-May-06 00:33S 37°52' E 144°54'0 0.0
2014-May-05 23:33S 37°52' E 144°54'0 0.0
2014-May-05 22:33S 37°52' E 144°54'0 0.0
2014-May-05 21:33S 37°52' E 144°54'0 0.0
2014-May-05 20:33S 37°52' E 144°54'0 0.2
2014-May-05 19:31S 37°52' E 144°55'0 0.2
2014-May-05 18:31S 37°52' E 144°54'0 0.0
2014-May-05 17:31S 37°52' E 144°54'0 0.0
2014-May-05 16:31S 37°52' E 144°54'0 0.0
2014-May-05 15:31S 37°52' E 144°54'0 0.0
2014-May-05 14:31S 37°52' E 144°54'0 0.0
2014-May-05 13:31S 37°52' E 144°54'0 0.0
2014-May-05 12:31S 37°52' E 144°54'6 6.0
2014-May-05 11:30S 37°57' E 144°50'6 6.4
2014-May-05 10:32S 37°52' E 144°54'0 0.0
2014-May-05 09:32S 37°52' E 144°54'0 0.0
2014-May-05 08:32S 37°52' E 144°54'0 0.0
2014-May-05 07:32S 37°52' E 144°54'0 0.3
2014-May-05 06:33S 37°52' E 144°55'0 0.3
2014-May-05 05:29S 37°52' E 144°54'0 0.0
2014-May-05 04:29S 37°52' E 144°54'0 0.0
2014-May-05 03:29S 37°52' E 144°54'3 3.6
2014-May-05 02:33S 37°55' E 144°53'1 0.6
2014-May-05 01:14S 37°56' E 144°53'4 5.9
2014-May-05 00:32S 37°52' E 144°54'0 0.0
2014-May-04 23:32S 37°52' E 144°54'0 0.0
2014-May-04 22:32S 37°52' E 144°54'6 5.5
2014-May-04 21:25S 37°57' E 144°52'6 6.5
2014-May-04 20:29S 37°52' E 144°54'0 0.0
2014-May-04 19:29S 37°52' E 144°54'0 0.0
2014-May-04 18:29S 37°52' E 144°54'0 0.0
2014-May-04 17:29S 37°52' E 144°54'0 0.0
2014-May-04 16:29S 37°52' E 144°54'0 0.0
2014-May-04 15:23S 37°52' E 144°54'0 0.0
2014-May-04 14:29S 37°52' E 144°54'0 0.0
2014-May-04 13:29S 37°52' E 144°54'1 1.4
2014-May-04 12:33S 37°53' E 144°55'1 1.2
2014-May-04 11:31S 37°52' E 144°54'0 0.0
2014-May-04 10:25S 37°52' E 144°54'0 0.0
2014-May-04 09:31S 37°52' E 144°54'2 2.6
2014-May-04 08:33S 37°54' E 144°54'5 4.6
2014-May-04 07:28S 37°57' E 144°50'7 6.8
2014-May-04 06:28S 37°52' E 144°54'0 0.0
2014-May-04 05:28S 37°52' E 144°54'0 0.0
2014-May-04 04:28S 37°52' E 144°54'0 0.0
2014-May-04 03:28S 37°52' E 144°54'3 3.6
2014-May-04 02:32S 37°55' E 144°55'3 3.3
2014-May-04 01:32S 37°52' E 144°54'0 0.0
2014-May-04 00:32S 37°52' E 144°54'0 0.0
2014-May-03 23:32S 37°52' E 144°54'6 5.5
2014-May-03 22:21S 37°58' E 144°52'6 7.7
2014-May-03 21:30S 37°52' E 144°54'1 1.0
2014-May-03 20:32S 37°52' E 144°55'1 0.9
2014-May-03 19:30S 37°52' E 144°54'0 0.0
2014-May-03 18:30S 37°52' E 144°54'0 0.0
2014-May-03 17:30S 37°52' E 144°54'0 0.0
2014-May-03 16:24S 37°52' E 144°54'0 0.0
2014-May-03 15:30S 37°52' E 144°54'0 0.0
2014-May-03 14:24S 37°52' E 144°54'0 0.0
2014-May-03 13:30S 37°52' E 144°54'0 0.0
2014-May-03 12:24S 37°52' E 144°54'0 0.0
2014-May-03 11:30S 37°52' E 144°54'7 7.3
2014-May-03 10:33S 37°58' E 144°52'7 6.9
2014-May-03 09:33S 37°52' E 144°54'0 0.0
2014-May-03 08:33S 37°52' E 144°54'7 6.4
2014-May-03 07:32S 37°58' E 144°51'6 5.8
2014-May-03 06:25S 37°52' E 144°54'0 0.0
2014-May-03 05:31S 37°52' E 144°54'0 0.0
2014-May-03 04:31S 37°52' E 144°54'0 0.0
2014-May-03 03:31S 37°52' E 144°54'0 0.0
2014-May-03 02:31S 37°52' E 144°54'0 0.0
2014-May-03 01:31S 37°52' E 144°54'3 3.4
2014-May-03 00:33S 37°55' E 144°54'3 3.2
2014-May-02 23:32S 37°52' E 144°54'0 0.0
2014-May-02 22:32S 37°52' E 144°54'0 0.0
2014-May-02 21:32S 37°52' E 144°54'0 0.0
2014-May-02 20:32S 37°52' E 144°54'0 0.0
2014-May-02 19:32S 37°52' E 144°54'0 0.0
2014-May-02 18:32S 37°52' E 144°54'0 0.0
2014-May-02 17:32S 37°52' E 144°54'0 0.0
2014-May-02 16:32S 37°52' E 144°54'0 0.0
2014-May-02 15:32S 37°52' E 144°54'0 0.0
2014-May-02 14:32S 37°52' E 144°54'0 0.0
2014-May-02 13:32S 37°52' E 144°54'0 0.0
2014-May-02 12:32S 37°52' E 144°54'0 0.0
2014-May-02 11:32S 37°52' E 144°54'0 0.0
2014-May-02 10:32S 37°52' E 144°54'5 5.2
2014-May-02 09:33S 37°57' E 144°53'2 2.3
2014-May-02 08:31S 37°57' E 144°50'6 5.9
2014-May-02 07:26S 37°52' E 144°54'0 0.0
2014-May-02 06:32S 37°52' E 144°54'0 0.0
2014-May-02 05:32S 37°52' E 144°54'0 0.0
2014-May-02 04:32S 37°52' E 144°54'0 0.2
2014-May-02 03:30S 37°52' E 144°55'0 0.4
2014-May-02 02:33S 37°52' E 144°55'1 0.6
2014-May-02 01:32S 37°52' E 144°54'0 0.0
2014-May-02 00:32S 37°52' E 144°54'0 0.0
2014-May-01 23:32S 37°52' E 144°54'0 0.0
2014-May-01 22:32S 37°52' E 144°54'0 0.0
2014-May-01 21:32S 37°52' E 144°54'0 0.0
2014-May-01 20:32S 37°52' E 144°54'0 0.0
2014-May-01 19:32S 37°52' E 144°54'0 0.0
2014-May-01 18:32S 37°52' E 144°54'0 0.0
2014-May-01 17:32S 37°52' E 144°54'0 0.0
2014-May-01 16:32S 37°52' E 144°54'0 0.0
2014-May-01 15:32S 37°52' E 144°54'7 6.4
2014-May-01 14:29S 37°58' E 144°53'7 7.0
2014-May-01 13:31S 37°52' E 144°54'0 0.0
2014-May-01 12:31S 37°52' E 144°54'0 0.0
2014-May-01 11:31S 37°52' E 144°54'7 6.3
2014-May-01 10:27S 37°58' E 144°54'7 7.1
2014-May-01 09:30S 37°52' E 144°54'0 0.5
2014-May-01 08:33S 37°52' E 144°55'0 0.5
2014-May-01 07:30S 37°52' E 144°54'0 0.0
2014-May-01 06:30S 37°52' E 144°54'0 0.0
2014-May-01 05:30S 37°52' E 144°54'0 0.0
2014-May-01 04:30S 37°52' E 144°54'0 0.0
2014-May-01 03:30S 37°52' E 144°54'0 0.0
2014-May-01 02:24S 37°52' E 144°54'0 0.0
2014-May-01 01:30S 37°52' E 144°54'5 5.4
2014-May-01 00:29S 37°57' E 144°52'5 5.8
2014-Apr-30 23:32S 37°52' E 144°54'0 0.0
2014-Apr-30 22:32S 37°52' E 144°54'0 0.0
2014-Apr-30 20:32S 37°52' E 144°54'2 1.6
2014-Apr-30 19:34S 37°53' E 144°55'2 1.6
2014-Apr-30 18:33S 37°52' E 144°54'5 5.1
2014-Apr-30 17:31S 37°56' E 144°51'5 5.4
2014-Apr-30 16:33S 37°52' E 144°54'0 0.0
2014-Apr-30 15:33S 37°52' E 144°54'0 0.0
2014-Apr-30 14:33S 37°52' E 144°54'0 0.0
2014-Apr-30 13:33S 37°52' E 144°54'0 0.0
2014-Apr-30 12:33S 37°52' E 144°54'0 0.0
2014-Apr-30 11:33S 37°52' E 144°54'0 0.0
2014-Apr-30 10:33S 37°52' E 144°54'0 0.0
2014-Apr-30 09:33S 37°52' E 144°54'0 0.0
2014-Apr-30 08:33S 37°52' E 144°54'0 0.0
2014-Apr-30 07:33S 37°52' E 144°54'0 0.0
2014-Apr-30 06:33S 37°52' E 144°54'0 0.0
2014-Apr-30 05:32S 37°52' E 144°54'0 0.0
2014-Apr-30 04:32S 37°52' E 144°54'0 0.0
2014-Apr-30 03:32S 37°52' E 144°54'0 0.0
2014-Apr-30 02:32S 37°52' E 144°54'0 0.0
2014-Apr-30 01:32S 37°52' E 144°54'0 0.0
2014-Apr-30 00:32S 37°52' E 144°54'2 2.5
2014-Apr-29 23:33S 37°54' E 144°54'2 2.3
2014-Apr-29 22:29S 37°52' E 144°54'0 0.0
2014-Apr-29 21:23S 37°52' E 144°54'0 0.0
2014-Apr-29 20:29S 37°52' E 144°54'0 0.0
2014-Apr-29 19:29S 37°52' E 144°54'0 0.0
2014-Apr-29 18:29S 37°52' E 144°54'0 0.0
2014-Apr-29 17:29S 37°52' E 144°54'0 0.0
2014-Apr-29 16:29S 37°52' E 144°54'0 0.0
2014-Apr-29 15:29S 37°52' E 144°54'6 6.1
2014-Apr-29 14:30S 37°58' E 144°53'6 4.4
2014-Apr-29 13:09S 37°52' E 144°54'0 0.0
2014-Apr-29 12:33S 37°52' E 144°54'0 0.0
2014-Apr-29 11:33S 37°52' E 144°54'0 0.0
2014-Apr-29 10:27S 37°52' E 144°54'0 0.0
2014-Apr-29 09:33S 37°52' E 144°54'0 0.0
2014-Apr-29 08:33S 37°52' E 144°54'3 2.8
2014-Apr-29 07:33S 37°54' E 144°54'3 2.4
2014-Apr-29 06:24S 37°52' E 144°54'0 0.0
2014-Apr-29 05:27S 37°52' E 144°54'0 0.0
2014-Apr-29 04:33S 37°52' E 144°54'0 0.0
2014-Apr-29 03:33S 37°52' E 144°54'5 4.8
2014-Apr-29 02:32S 37°57' E 144°54'5 2.4
2014-Apr-29 00:32S 37°52' E 144°54'  
Track history (hours):
 
Tides and Currents Weather Stations Pressure Air Temp Water Temp Dewpoint Dewpoint Depression Visibility Wind Speed Wind Dir Waves Ship Positions

Victoria III

Last reported at 2014-May-09 00:31 UTC. Time now 2014-Jul-25 23:08 UTC.
Position S 37°52' E 144°54'.
Warning: this ship's position is months out of date.

Type: Pilot. MMSI: 503092900.

Date/timePositionNaut miles runAvg speedWind from/ knotsBaromVisibWave heightAir tempDewpointWater temp
2014-May-09 00:31S 37°52' E 144°54'0 0.0
2014-May-08 23:31S 37°52' E 144°54'0 0.0
2014-May-08 22:19S 37°52' E 144°54'0 0.0
2014-May-08 21:31S 37°52' E 144°54'0 0.0
2014-May-08 20:25S 37°52' E 144°54'0 0.0
2014-May-08 19:31S 37°52' E 144°54'0 0.0
2014-May-08 18:25S 37°52' E 144°54'10 8.0
2014-May-08 17:13S 38°01' E 144°52'5 6.9
2014-May-08 16:33S 37°57' E 144°54'5 4.7
2014-May-08 15:31S 37°52' E 144°54'0 0.0
2014-May-08 14:31S 37°52' E 144°54'0 0.0
2014-May-08 13:31S 37°52' E 144°54'1 1.3
2014-May-08 12:32S 37°53' E 144°55'1 1.2
2014-May-08 11:31S 37°52' E 144°54'0 0.0
2014-May-08 10:31S 37°52' E 144°54'0 0.0
2014-May-08 09:31S 37°52' E 144°54'7 6.5
2014-May-08 08:26S 37°58' E 144°52'7 3.1
2014-May-08 06:12S 37°52' E 144°54'0 0.0
2014-May-08 05:30S 37°52' E 144°54'5 5.0
2014-May-08 04:27S 37°56' E 144°51'1 1.1
2014-May-08 03:30S 37°57' E 144°52'6 5.6
2014-May-08 02:30S 37°52' E 144°54'0 0.0
2014-May-08 01:30S 37°52' E 144°54'0 0.0
2014-May-08 00:30S 37°52' E 144°54'0 0.0
2014-May-07 23:30S 37°52' E 144°54'0 0.0
2014-May-07 22:24S 37°52' E 144°54'0 0.0
2014-May-07 21:30S 37°52' E 144°54'0 0.0
2014-May-07 20:30S 37°52' E 144°54'0 0.0
2014-May-07 19:30S 37°52' E 144°54'0 0.2
2014-May-07 18:33S 37°52' E 144°55'0 0.1
2014-May-07 17:32S 37°52' E 144°54'0 0.1
2014-May-07 16:33S 37°52' E 144°54'0 0.0
2014-May-07 15:33S 37°52' E 144°54'0 0.0
2014-May-07 14:33S 37°52' E 144°54'0 0.0
2014-May-07 13:33S 37°52' E 144°54'0 0.0
2014-May-07 12:33S 37°52' E 144°54'0 0.0
2014-May-07 11:33S 37°52' E 144°54'0 0.0
2014-May-07 10:31S 37°52' E 144°54'3 3.0
2014-May-07 09:33S 37°54' E 144°53'3 2.9
2014-May-07 08:31S 37°52' E 144°54'0 0.0
2014-May-07 07:31S 37°52' E 144°54'0 0.0
2014-May-07 05:31S 37°52' E 144°54'0 0.0
2014-May-07 04:31S 37°52' E 144°54'0 0.0
2014-May-07 03:31S 37°52' E 144°54'0 0.0
2014-May-07 02:31S 37°52' E 144°54'0 0.0
2014-May-07 01:31S 37°52' E 144°54'0 0.0
2014-May-07 00:31S 37°52' E 144°54'1 1.5
2014-May-06 23:33S 37°53' E 144°55'1 1.3
2014-May-06 22:29S 37°52' E 144°54'0 0.0
2014-May-06 21:29S 37°52' E 144°54'0 0.0
2014-May-06 20:29S 37°52' E 144°54'2 2.6
2014-May-06 19:33S 37°54' E 144°55'2 2.3
2014-May-06 18:29S 37°52' E 144°54'0 0.0
2014-May-06 17:29S 37°52' E 144°54'0 0.0
2014-May-06 16:29S 37°52' E 144°54'5 5.7
2014-May-06 15:33S 37°57' E 144°54'5 5.0
2014-May-06 14:28S 37°52' E 144°54'0 0.0
2014-May-06 13:28S 37°52' E 144°54'5 4.2
2014-May-06 12:14S 37°56' E 144°52'5 7.3
2014-May-06 11:32S 37°52' E 144°54'0 0.0
2014-May-06 10:32S 37°52' E 144°54'0 0.0
2014-May-06 09:32S 37°52' E 144°54'6 5.3
2014-May-06 08:29S 37°57' E 144°53'6 5.8
2014-May-06 07:31S 37°52' E 144°54'0 0.0
2014-May-06 06:31S 37°52' E 144°54'3 3.5
2014-May-06 05:33S 37°55' E 144°54'3 3.3
2014-May-06 04:31S 37°52' E 144°54'1 0.7
2014-May-06 03:33S 37°52' E 144°55'1 0.7
2014-May-06 02:33S 37°52' E 144°54'0 0.0
2014-May-06 01:33S 37°52' E 144°54'0 0.0
2014-May-06 00:33S 37°52' E 144°54'0 0.0
2014-May-05 23:33S 37°52' E 144°54'0 0.0
2014-May-05 22:33S 37°52' E 144°54'0 0.0
2014-May-05 21:33S 37°52' E 144°54'0 0.0
2014-May-05 20:33S 37°52' E 144°54'0 0.2
2014-May-05 19:31S 37°52' E 144°55'0 0.2
2014-May-05 18:31S 37°52' E 144°54'0 0.0
2014-May-05 17:31S 37°52' E 144°54'0 0.0
2014-May-05 16:31S 37°52' E 144°54'0 0.0
2014-May-05 15:31S 37°52' E 144°54'0 0.0
2014-May-05 14:31S 37°52' E 144°54'0 0.0
2014-May-05 13:31S 37°52' E 144°54'0 0.0
2014-May-05 12:31S 37°52' E 144°54'6 6.0
2014-May-05 11:30S 37°57' E 144°50'6 6.4
2014-May-05 10:32S 37°52' E 144°54'0 0.0
2014-May-05 09:32S 37°52' E 144°54'0 0.0
2014-May-05 08:32S 37°52' E 144°54'0 0.0
2014-May-05 07:32S 37°52' E 144°54'0 0.3
2014-May-05 06:33S 37°52' E 144°55'0 0.3
2014-May-05 05:29S 37°52' E 144°54'0 0.0
2014-May-05 04:29S 37°52' E 144°54'0 0.0
2014-May-05 03:29S 37°52' E 144°54'3 3.6
2014-May-05 02:33S 37°55' E 144°53'1 0.6
2014-May-05 01:14S 37°56' E 144°53'4 5.9
2014-May-05 00:32S 37°52' E 144°54'0 0.0
2014-May-04 23:32S 37°52' E 144°54'0 0.0
2014-May-04 22:32S 37°52' E 144°54'6 5.5
2014-May-04 21:25S 37°57' E 144°52'6 6.5
2014-May-04 20:29S 37°52' E 144°54'0 0.0
2014-May-04 19:29S 37°52' E 144°54'0 0.0
2014-May-04 18:29S 37°52' E 144°54'0 0.0
2014-May-04 17:29S 37°52' E 144°54'0 0.0
2014-May-04 16:29S 37°52' E 144°54'0 0.0
2014-May-04 15:23S 37°52' E 144°54'0 0.0
2014-May-04 14:29S 37°52' E 144°54'0 0.0
2014-May-04 13:29S 37°52' E 144°54'1 1.4
2014-May-04 12:33S 37°53' E 144°55'1 1.2
2014-May-04 11:31S 37°52' E 144°54'0 0.0
2014-May-04 10:25S 37°52' E 144°54'0 0.0
2014-May-04 09:31S 37°52' E 144°54'2 2.6
2014-May-04 08:33S 37°54' E 144°54'5 4.6
2014-May-04 07:28S 37°57' E 144°50'7 6.8
2014-May-04 06:28S 37°52' E 144°54'0 0.0
2014-May-04 05:28S 37°52' E 144°54'0 0.0
2014-May-04 04:28S 37°52' E 144°54'0 0.0
2014-May-04 03:28S 37°52' E 144°54'3 3.6
2014-May-04 02:32S 37°55' E 144°55'3 3.3
2014-May-04 01:32S 37°52' E 144°54'0 0.0
2014-May-04 00:32S 37°52' E 144°54'0 0.0
2014-May-03 23:32S 37°52' E 144°54'6 5.5
2014-May-03 22:21S 37°58' E 144°52'6 7.7
2014-May-03 21:30S 37°52' E 144°54'1 1.0
2014-May-03 20:32S 37°52' E 144°55'1 0.9
2014-May-03 19:30S 37°52' E 144°54'0 0.0
2014-May-03 18:30S 37°52' E 144°54'0 0.0
2014-May-03 17:30S 37°52' E 144°54'0 0.0
2014-May-03 16:24S 37°52' E 144°54'0 0.0
2014-May-03 15:30S 37°52' E 144°54'0 0.0
2014-May-03 14:24S 37°52' E 144°54'0 0.0
2014-May-03 13:30S 37°52' E 144°54'0 0.0
2014-May-03 12:24S 37°52' E 144°54'0 0.0
2014-May-03 11:30S 37°52' E 144°54'7 7.3
2014-May-03 10:33S 37°58' E 144°52'7 6.9
2014-May-03 09:33S 37°52' E 144°54'0 0.0
2014-May-03 08:33S 37°52' E 144°54'7 6.4
2014-May-03 07:32S 37°58' E 144°51'6 5.8
2014-May-03 06:25S 37°52' E 144°54'0 0.0
2014-May-03 05:31S 37°52' E 144°54'0 0.0
2014-May-03 04:31S 37°52' E 144°54'0 0.0
2014-May-03 03:31S 37°52' E 144°54'0 0.0
2014-May-03 02:31S 37°52' E 144°54'0 0.0
2014-May-03 01:31S 37°52' E 144°54'3 3.4
2014-May-03 00:33S 37°55' E 144°54'3 3.2
2014-May-02 23:32S 37°52' E 144°54'0 0.0
2014-May-02 22:32S 37°52' E 144°54'0 0.0
2014-May-02 21:32S 37°52' E 144°54'0 0.0
2014-May-02 20:32S 37°52' E 144°54'0 0.0
2014-May-02 19:32S 37°52' E 144°54'0 0.0
2014-May-02 18:32S 37°52' E 144°54'0 0.0
2014-May-02 17:32S 37°52' E 144°54'0 0.0
2014-May-02 16:32S 37°52' E 144°54'0 0.0
2014-May-02 15:32S 37°52' E 144°54'0 0.0
2014-May-02 14:32S 37°52' E 144°54'0 0.0
2014-May-02 13:32S 37°52' E 144°54'0 0.0
2014-May-02 12:32S 37°52' E 144°54'0 0.0
2014-May-02 11:32S 37°52' E 144°54'0 0.0
2014-May-02 10:32S 37°52' E 144°54'5 5.2
2014-May-02 09:33S 37°57' E 144°53'2 2.3
2014-May-02 08:31S 37°57' E 144°50'6 5.9
2014-May-02 07:26S 37°52' E 144°54'0 0.0
2014-May-02 06:32S 37°52' E 144°54'0 0.0
2014-May-02 05:32S 37°52' E 144°54'0 0.0
2014-May-02 04:32S 37°52' E 144°54'0 0.2
2014-May-02 03:30S 37°52' E 144°55'0 0.4
2014-May-02 02:33S 37°52' E 144°55'1 0.6
2014-May-02 01:32S 37°52' E 144°54'0 0.0
2014-May-02 00:32S 37°52' E 144°54'0 0.0
2014-May-01 23:32S 37°52' E 144°54'0 0.0
2014-May-01 22:32S 37°52' E 144°54'0 0.0
2014-May-01 21:32S 37°52' E 144°54'0 0.0
2014-May-01 20:32S 37°52' E 144°54'0 0.0
2014-May-01 19:32S 37°52' E 144°54'0 0.0
2014-May-01 18:32S 37°52' E 144°54'0 0.0
2014-May-01 17:32S 37°52' E 144°54'0 0.0
2014-May-01 16:32S 37°52' E 144°54'0 0.0
2014-May-01 15:32S 37°52' E 144°54'7 6.4
2014-May-01 14:29S 37°58' E 144°53'7 7.0
2014-May-01 13:31S 37°52' E 144°54'0 0.0
2014-May-01 12:31S 37°52' E 144°54'0 0.0
2014-May-01 11:31S 37°52' E 144°54'7 6.3
2014-May-01 10:27S 37°58' E 144°54'7 7.1
2014-May-01 09:30S 37°52' E 144°54'0 0.5
2014-May-01 08:33S 37°52' E 144°55'0 0.5
2014-May-01 07:30S 37°52' E 144°54'0 0.0
2014-May-01 06:30S 37°52' E 144°54'0 0.0
2014-May-01 05:30S 37°52' E 144°54'0 0.0
2014-May-01 04:30S 37°52' E 144°54'0 0.0
2014-May-01 03:30S 37°52' E 144°54'0 0.0
2014-May-01 02:24S 37°52' E 144°54'0 0.0
2014-May-01 01:30S 37°52' E 144°54'5 5.4
2014-May-01 00:29S 37°57' E 144°52'5 5.8
2014-Apr-30 23:32S 37°52' E 144°54'0 0.0
2014-Apr-30 22:32S 37°52' E 144°54'0 0.0
2014-Apr-30 20:32S 37°52' E 144°54'2 1.6
2014-Apr-30 19:34S 37°53' E 144°55'2 1.6
2014-Apr-30 18:33S 37°52' E 144°54'5 5.1
2014-Apr-30 17:31S 37°56' E 144°51'5 5.4
2014-Apr-30 16:33S 37°52' E 144°54'0 0.0
2014-Apr-30 15:33S 37°52' E 144°54'0 0.0
2014-Apr-30 14:33S 37°52' E 144°54'0 0.0
2014-Apr-30 13:33S 37°52' E 144°54'0 0.0
2014-Apr-30 12:33S 37°52' E 144°54'0 0.0
2014-Apr-30 11:33S 37°52' E 144°54'0 0.0
2014-Apr-30 10:33S 37°52' E 144°54'0 0.0
2014-Apr-30 09:33S 37°52' E 144°54'0 0.0
2014-Apr-30 08:33S 37°52' E 144°54'0 0.0
2014-Apr-30 07:33S 37°52' E 144°54'0 0.0
2014-Apr-30 06:33S 37°52' E 144°54'0 0.0
2014-Apr-30 05:32S 37°52' E 144°54'0 0.0
2014-Apr-30 04:32S 37°52' E 144°54'0 0.0
2014-Apr-30 03:32S 37°52' E 144°54'0 0.0
2014-Apr-30 02:32S 37°52' E 144°54'0 0.0
2014-Apr-30 01:32S 37°52' E 144°54'0 0.0
2014-Apr-30 00:32S 37°52' E 144°54'2 2.5
2014-Apr-29 23:33S 37°54' E 144°54'2 2.3
2014-Apr-29 22:29S 37°52' E 144°54'0 0.0
2014-Apr-29 21:23S 37°52' E 144°54'0 0.0
2014-Apr-29 20:29S 37°52' E 144°54'0 0.0
2014-Apr-29 19:29S 37°52' E 144°54'0 0.0
2014-Apr-29 18:29S 37°52' E 144°54'0 0.0
2014-Apr-29 17:29S 37°52' E 144°54'0 0.0
2014-Apr-29 16:29S 37°52' E 144°54'0 0.0
2014-Apr-29 15:29S 37°52' E 144°54'6 6.1
2014-Apr-29 14:30S 37°58' E 144°53'6 4.4
2014-Apr-29 13:09S 37°52' E 144°54'0 0.0
2014-Apr-29 12:33S 37°52' E 144°54'0 0.0
2014-Apr-29 11:33S 37°52' E 144°54'0 0.0
2014-Apr-29 10:27S 37°52' E 144°54'0 0.0
2014-Apr-29 09:33S 37°52' E 144°54'0 0.0
2014-Apr-29 08:33S 37°52' E 144°54'3 2.8
2014-Apr-29 07:33S 37°54' E 144°54'3 2.4
2014-Apr-29 06:24S 37°52' E 144°54'0 0.0
2014-Apr-29 05:27S 37°52' E 144°54'0 0.0
2014-Apr-29 04:33S 37°52' E 144°54'0 0.0
2014-Apr-29 03:33S 37°52' E 144°54'5 4.8
2014-Apr-29 02:32S 37°57' E 144°54'5 2.4
2014-Apr-29 00:32S 37°52' E 144°54'  

Dump ship's entire track history